sensor_id;sensor_type;location;lat;lon;timestamp;P1;durP1;ratioP1;P2;durP2;ratioP2
23187;SDS011;11762;59.878;17.686;2022-11-11T02:32:27;6.37;;;1.63;;
23187;SDS011;11762;59.878;17.686;2022-11-11T02:34:54;5.67;;;1.10;;
23187;SDS011;11762;59.878;17.686;2022-11-11T02:37:22;5.63;;;1.00;;
23187;SDS011;11762;59.878;17.686;2022-11-11T02:39:53;5.20;;;1.07;;
23187;SDS011;11762;59.878;17.686;2022-11-11T02:42:24;7.33;;;1.30;;
23187;SDS011;11762;59.878;17.686;2022-11-11T02:44:52;4.63;;;1.33;;
23187;SDS011;11762;59.878;17.686;2022-11-11T02:47:23;6.50;;;1.07;;
23187;SDS011;11762;59.878;17.686;2022-11-11T02:49:52;6.03;;;1.03;;
23187;SDS011;11762;59.878;17.686;2022-11-11T02:52:19;9.80;;;1.30;;
23187;SDS011;11762;59.878;17.686;2022-11-11T02:54:46;6.77;;;1.10;;
23187;SDS011;11762;59.878;17.686;2022-11-11T02:57:13;6.70;;;1.00;;
23187;SDS011;11762;59.878;17.686;2022-11-11T02:59:41;8.40;;;1.50;;
23187;SDS011;11762;59.878;17.686;2022-11-11T03:02:08;3.90;;;1.23;;
23187;SDS011;11762;59.878;17.686;2022-11-11T03:04:35;3.40;;;0.90;;
23187;SDS011;11762;59.878;17.686;2022-11-11T03:07:03;7.23;;;1.10;;
23187;SDS011;11762;59.878;17.686;2022-11-11T03:09:31;9.50;;;1.17;;
23187;SDS011;11762;59.878;17.686;2022-11-11T03:11:58;5.13;;;0.87;;
23187;SDS011;11762;59.878;17.686;2022-11-11T03:14:25;5.43;;;0.93;;
23187;SDS011;11762;59.878;17.686;2022-11-11T03:16:52;2.67;;;0.97;;
23187;SDS011;11762;59.878;17.686;2022-11-11T03:19:36;5.60;;;0.80;;
23187;SDS011;11762;59.878;17.686;2022-11-11T03:22:05;8.53;;;1.27;;
23187;SDS011;11762;59.878;17.686;2022-11-11T03:24:32;6.87;;;0.93;;
23187;SDS011;11762;59.878;17.686;2022-11-11T03:27:25;3.17;;;1.00;;
23187;SDS011;11762;59.878;17.686;2022-11-11T03:29:52;4.00;;;1.00;;
23187;SDS011;11762;59.878;17.686;2022-11-11T03:32:18;9.30;;;1.27;;
23187;SDS011;11762;59.878;17.686;2022-11-11T03:34:45;4.50;;;1.00;;
23187;SDS011;11762;59.878;17.686;2022-11-11T03:37:14;2.37;;;0.70;;
23187;SDS011;11762;59.878;17.686;2022-11-11T03:39:58;4.43;;;0.90;;
23187;SDS011;11762;59.878;17.686;2022-11-11T03:42:25;8.13;;;1.40;;
23187;SDS011;11762;59.878;17.686;2022-11-11T03:44:52;2.40;;;0.67;;
23187;SDS011;11762;59.878;17.686;2022-11-11T03:47:19;3.97;;;1.40;;
23187;SDS011;11762;59.878;17.686;2022-11-11T03:49:46;5.73;;;0.97;;
23187;SDS011;11762;59.878;17.686;2022-11-11T03:52:14;5.07;;;0.90;;
23187;SDS011;11762;59.878;17.686;2022-11-11T03:54:41;3.70;;;1.13;;
23187;SDS011;11762;59.878;17.686;2022-11-11T03:57:08;4.17;;;1.00;;
23187;SDS011;11762;59.878;17.686;2022-11-11T03:59:52;7.43;;;1.00;;
23187;SDS011;11762;59.878;17.686;2022-11-11T04:02:19;7.50;;;1.17;;
23187;SDS011;11762;59.878;17.686;2022-11-11T04:05:04;7.00;;;1.20;;
23187;SDS011;11762;59.878;17.686;2022-11-11T04:07:51;6.20;;;1.33;;
23187;SDS011;11762;59.878;17.686;2022-11-11T04:10:36;6.10;;;1.30;;
23187;SDS011;11762;59.878;17.686;2022-11-11T04:13:03;3.77;;;0.97;;
23187;SDS011;11762;59.878;17.686;2022-11-11T04:15:48;5.67;;;1.63;;
23187;SDS011;11762;59.878;17.686;2022-11-11T04:18:34;4.03;;;1.10;;
23187;SDS011;11762;59.878;17.686;2022-11-11T04:21:20;6.53;;;1.20;;
23187;SDS011;11762;59.878;17.686;2022-11-11T04:24:12;6.67;;;1.20;;
23187;SDS011;11762;59.878;17.686;2022-11-11T04:26:58;8.03;;;1.50;;
23187;SDS011;11762;59.878;17.686;2022-11-11T04:29:29;9.87;;;1.40;;
23187;SDS011;11762;59.878;17.686;2022-11-11T04:31:56;12.77;;;1.90;;
23187;SDS011;11762;59.878;17.686;2022-11-11T04:34:42;7.60;;;1.03;;
23187;SDS011;11762;59.878;17.686;2022-11-11T04:37:10;8.60;;;1.57;;
23187;SDS011;11762;59.878;17.686;2022-11-11T04:39:39;6.20;;;0.97;;
23187;SDS011;11762;59.878;17.686;2022-11-11T04:42:24;8.67;;;1.60;;
23187;SDS011;11762;59.878;17.686;2022-11-11T04:44:51;5.00;;;1.30;;
23187;SDS011;11762;59.878;17.686;2022-11-11T04:47:36;15.13;;;2.03;;
23187;SDS011;11762;59.878;17.686;2022-11-11T04:50:04;5.30;;;1.20;;
23187;SDS011;11762;59.878;17.686;2022-11-11T04:52:31;6.60;;;1.30;;
23187;SDS011;11762;59.878;17.686;2022-11-11T04:55:00;7.30;;;1.67;;
23187;SDS011;11762;59.878;17.686;2022-11-11T04:57:44;10.27;;;1.97;;
23187;SDS011;11762;59.878;17.686;2022-11-11T05:00:13;8.07;;;1.50;;
23187;SDS011;11762;59.878;17.686;2022-11-11T05:02:41;7.60;;;1.30;;
23187;SDS011;11762;59.878;17.686;2022-11-11T05:05:26;5.43;;;1.37;;
23187;SDS011;11762;59.878;17.686;2022-11-11T05:08:14;7.10;;;1.70;;
23187;SDS011;11762;59.878;17.686;2022-11-11T05:11:00;10.63;;;1.67;;
23187;SDS011;11762;59.878;17.686;2022-11-11T05:13:27;10.60;;;1.97;;
23187;SDS011;11762;59.878;17.686;2022-11-11T05:16:12;9.53;;;1.70;;
23187;SDS011;11762;59.878;17.686;2022-11-11T05:18:58;5.97;;;1.33;;
23187;SDS011;11762;59.878;17.686;2022-11-11T05:21:43;9.60;;;1.53;;
23187;SDS011;11762;59.878;17.686;2022-11-11T05:24:10;10.73;;;1.90;;
23187;SDS011;11762;59.878;17.686;2022-11-11T05:26:55;6.80;;;2.13;;
23187;SDS011;11762;59.878;17.686;2022-11-11T05:29:22;8.43;;;1.90;;
23187;SDS011;11762;59.878;17.686;2022-11-11T05:31:49;7.57;;;1.57;;
23187;SDS011;11762;59.878;17.686;2022-11-11T05:34:16;9.53;;;1.90;;
23187;SDS011;11762;59.878;17.686;2022-11-11T05:36:43;10.97;;;1.90;;
23187;SDS011;11762;59.878;17.686;2022-11-11T05:39:10;14.20;;;1.80;;
23187;SDS011;11762;59.878;17.686;2022-11-11T05:41:37;8.73;;;1.53;;
23187;SDS011;11762;59.878;17.686;2022-11-11T05:44:05;10.53;;;1.60;;
23187;SDS011;11762;59.878;17.686;2022-11-11T05:46:32;11.00;;;1.97;;
23187;SDS011;11762;59.878;17.686;2022-11-11T05:48:59;9.90;;;1.73;;
23187;SDS011;11762;59.878;17.686;2022-11-11T05:51:40;17.23;;;2.53;;
23187;SDS011;11762;59.878;17.686;2022-11-11T05:54:07;10.40;;;1.80;;
23187;SDS011;11762;59.878;17.686;2022-11-11T05:56:34;12.90;;;2.50;;
23187;SDS011;11762;59.878;17.686;2022-11-11T05:59:01;14.97;;;2.00;;
23187;SDS011;11762;59.878;17.686;2022-11-11T06:01:29;16.90;;;2.47;;
23187;SDS011;11762;59.878;17.686;2022-11-11T06:03:56;9.50;;;2.03;;
23187;SDS011;11762;59.878;17.686;2022-11-11T06:06:23;15.03;;;2.50;;
23187;SDS011;11762;59.878;17.686;2022-11-11T06:08:50;10.60;;;2.37;;
23187;SDS011;11762;59.878;17.686;2022-11-11T06:11:17;11.43;;;2.03;;
23187;SDS011;11762;59.878;17.686;2022-11-11T06:13:45;13.60;;;2.40;;
23187;SDS011;11762;59.878;17.686;2022-11-11T06:16:12;21.50;;;2.87;;
23187;SDS011;11762;59.878;17.686;2022-11-11T06:18:40;16.87;;;2.37;;
23187;SDS011;11762;59.878;17.686;2022-11-11T06:21:08;13.63;;;2.40;;
23187;SDS011;11762;59.878;17.686;2022-11-11T06:23:35;12.17;;;1.97;;
23187;SDS011;11762;59.878;17.686;2022-11-11T06:26:03;16.37;;;2.40;;
23187;SDS011;11762;59.878;17.686;2022-11-11T06:28:41;14.93;;;2.40;;
23187;SDS011;11762;59.878;17.686;2022-11-11T06:31:11;13.97;;;2.53;;
23187;SDS011;11762;59.878;17.686;2022-11-11T06:33:41;18.17;;;3.83;;
23187;SDS011;11762;59.878;17.686;2022-11-11T06:36:09;14.00;;;3.17;;
23187;SDS011;11762;59.878;17.686;2022-11-11T06:38:37;12.40;;;2.83;;
23187;SDS011;11762;59.878;17.686;2022-11-11T06:41:05;17.67;;;2.50;;
23187;SDS011;11762;59.878;17.686;2022-11-11T06:43:32;12.43;;;2.17;;
23187;SDS011;11762;59.878;17.686;2022-11-11T06:45:59;21.27;;;3.07;;
23187;SDS011;11762;59.878;17.686;2022-11-11T06:48:26;12.10;;;2.17;;
23187;SDS011;11762;59.878;17.686;2022-11-11T06:50:59;11.83;;;2.43;;
23187;SDS011;11762;59.878;17.686;2022-11-11T06:53:28;12.00;;;2.50;;
23187;SDS011;11762;59.878;17.686;2022-11-11T06:55:55;8.47;;;2.50;;
23187;SDS011;11762;59.878;17.686;2022-11-11T06:58:22;13.80;;;2.50;;
23187;SDS011;11762;59.878;17.686;2022-11-11T07:00:50;13.23;;;2.10;;
23187;SDS011;11762;59.878;17.686;2022-11-11T07:03:17;13.43;;;2.80;;
23187;SDS011;11762;59.878;17.686;2022-11-11T07:05:45;18.70;;;2.50;;
23187;SDS011;11762;59.878;17.686;2022-11-11T07:08:15;16.73;;;3.07;;
23187;SDS011;11762;59.878;17.686;2022-11-11T07:10:43;9.13;;;2.30;;
23187;SDS011;11762;59.878;17.686;2022-11-11T07:13:11;8.67;;;1.87;;
23187;SDS011;11762;59.878;17.686;2022-11-11T07:15:39;15.03;;;2.13;;
23187;SDS011;11762;59.878;17.686;2022-11-11T07:18:07;13.33;;;2.87;;
23187;SDS011;11762;59.878;17.686;2022-11-11T07:20:34;14.07;;;1.97;;
23187;SDS011;11762;59.878;17.686;2022-11-11T07:23:02;17.03;;;2.90;;
23187;SDS011;11762;59.878;17.686;2022-11-11T07:25:31;12.73;;;2.60;;
23187;SDS011;11762;59.878;17.686;2022-11-11T07:27:58;10.80;;;2.77;;
23187;SDS011;11762;59.878;17.686;2022-11-11T07:30:25;10.43;;;1.80;;
23187;SDS011;11762;59.878;17.686;2022-11-11T07:32:52;13.10;;;2.47;;
23187;SDS011;11762;59.878;17.686;2022-11-11T07:35:20;11.77;;;2.20;;
23187;SDS011;11762;59.878;17.686;2022-11-11T07:37:47;11.53;;;2.17;;
23187;SDS011;11762;59.878;17.686;2022-11-11T07:40:15;12.23;;;2.63;;
23187;SDS011;11762;59.878;17.686;2022-11-11T07:42:45;9.50;;;2.17;;
23187;SDS011;11762;59.878;17.686;2022-11-11T07:45:12;12.83;;;2.80;;
23187;SDS011;11762;59.878;17.686;2022-11-11T07:47:41;19.73;;;2.20;;
23187;SDS011;11762;59.878;17.686;2022-11-11T07:50:09;15.10;;;1.97;;
23187;SDS011;11762;59.878;17.686;2022-11-11T07:52:37;14.73;;;2.57;;
23187;SDS011;11762;59.878;17.686;2022-11-11T07:55:04;14.23;;;2.43;;
23187;SDS011;11762;59.878;17.686;2022-11-11T07:57:32;16.27;;;3.37;;
23187;SDS011;11762;59.878;17.686;2022-11-11T08:00:01;8.70;;;2.03;;
23187;SDS011;11762;59.878;17.686;2022-11-11T08:02:28;11.07;;;2.70;;
23187;SDS011;11762;59.878;17.686;2022-11-11T08:04:55;14.20;;;2.60;;
23187;SDS011;11762;59.878;17.686;2022-11-11T08:07:22;12.90;;;2.43;;
23187;SDS011;11762;59.878;17.686;2022-11-11T08:09:49;15.13;;;2.53;;
23187;SDS011;11762;59.878;17.686;2022-11-11T08:12:16;19.40;;;3.17;;
23187;SDS011;11762;59.878;17.686;2022-11-11T08:15:03;15.37;;;2.87;;
23187;SDS011;11762;59.878;17.686;2022-11-11T08:17:30;13.40;;;2.23;;
23187;SDS011;11762;59.878;17.686;2022-11-11T08:20:02;16.73;;;2.77;;
23187;SDS011;11762;59.878;17.686;2022-11-11T08:22:34;13.80;;;3.00;;
23187;SDS011;11762;59.878;17.686;2022-11-11T08:25:01;11.57;;;2.83;;
23187;SDS011;11762;59.878;17.686;2022-11-11T08:27:29;13.77;;;2.60;;
23187;SDS011;11762;59.878;17.686;2022-11-11T08:29:56;13.20;;;3.23;;
23187;SDS011;11762;59.878;17.686;2022-11-11T08:32:24;15.03;;;2.73;;
23187;SDS011;11762;59.878;17.686;2022-11-11T08:34:52;20.07;;;3.37;;
23187;SDS011;11762;59.878;17.686;2022-11-11T08:37:19;13.83;;;3.43;;
23187;SDS011;11762;59.878;17.686;2022-11-11T08:39:46;13.73;;;2.60;;
23187;SDS011;11762;59.878;17.686;2022-11-11T08:42:13;19.30;;;3.37;;
23187;SDS011;11762;59.878;17.686;2022-11-11T08:44:40;12.77;;;3.30;;
23187;SDS011;11762;59.878;17.686;2022-11-11T08:47:07;15.50;;;3.13;;
23187;SDS011;11762;59.878;17.686;2022-11-11T08:49:36;17.53;;;3.53;;
23187;SDS011;11762;59.878;17.686;2022-11-11T08:52:03;22.27;;;3.93;;
23187;SDS011;11762;59.878;17.686;2022-11-11T08:54:30;18.03;;;4.07;;
23187;SDS011;11762;59.878;17.686;2022-11-11T08:56:58;14.87;;;2.80;;
23187;SDS011;11762;59.878;17.686;2022-11-11T08:59:25;12.77;;;2.67;;
23187;SDS011;11762;59.878;17.686;2022-11-11T09:01:52;15.87;;;3.00;;
23187;SDS011;11762;59.878;17.686;2022-11-11T09:04:19;21.87;;;3.60;;
23187;SDS011;11762;59.878;17.686;2022-11-11T09:06:47;19.73;;;3.27;;
23187;SDS011;11762;59.878;17.686;2022-11-11T09:09:14;18.43;;;3.00;;
23187;SDS011;11762;59.878;17.686;2022-11-11T09:11:42;15.17;;;3.43;;
23187;SDS011;11762;59.878;17.686;2022-11-11T09:14:09;14.17;;;2.40;;
23187;SDS011;11762;59.878;17.686;2022-11-11T09:16:36;10.90;;;2.60;;
23187;SDS011;11762;59.878;17.686;2022-11-11T09:19:03;14.10;;;3.10;;
23187;SDS011;11762;59.878;17.686;2022-11-11T09:21:30;17.50;;;3.27;;
23187;SDS011;11762;59.878;17.686;2022-11-11T09:23:58;16.93;;;3.60;;
23187;SDS011;11762;59.878;17.686;2022-11-11T09:26:25;14.50;;;3.00;;
23187;SDS011;11762;59.878;17.686;2022-11-11T09:28:52;15.97;;;2.93;;
23187;SDS011;11762;59.878;17.686;2022-11-11T09:31:19;18.60;;;3.13;;
23187;SDS011;11762;59.878;17.686;2022-11-11T09:33:47;12.70;;;2.70;;
23187;SDS011;11762;59.878;17.686;2022-11-11T09:36:14;18.17;;;2.87;;
23187;SDS011;11762;59.878;17.686;2022-11-11T09:38:40;18.00;;;3.20;;
23187;SDS011;11762;59.878;17.686;2022-11-11T09:41:12;15.03;;;3.00;;
23187;SDS011;11762;59.878;17.686;2022-11-11T09:43:45;14.07;;;2.43;;
23187;SDS011;11762;59.878;17.686;2022-11-11T09:46:23;12.07;;;2.53;;
23187;SDS011;11762;59.878;17.686;2022-11-11T09:49:18;12.60;;;2.60;;
23187;SDS011;11762;59.878;17.686;2022-11-11T09:52:02;8.97;;;1.83;;
23187;SDS011;11762;59.878;17.686;2022-11-11T09:54:33;12.57;;;2.73;;
23187;SDS011;11762;59.878;17.686;2022-11-11T09:57:07;12.07;;;2.50;;
23187;SDS011;11762;59.878;17.686;2022-11-11T09:59:41;13.77;;;2.60;;
23187;SDS011;11762;59.878;17.686;2022-11-11T10:02:14;12.53;;;2.43;;
23187;SDS011;11762;59.878;17.686;2022-11-11T10:04:47;14.63;;;2.70;;
23187;SDS011;11762;59.878;17.686;2022-11-11T10:07:23;10.73;;;2.80;;
23187;SDS011;11762;59.878;17.686;2022-11-11T10:09:58;8.73;;;2.23;;
23187;SDS011;11762;59.878;17.686;2022-11-11T10:12:34;16.60;;;3.17;;
23187;SDS011;11762;59.878;17.686;2022-11-11T10:15:06;12.40;;;2.40;;
23187;SDS011;11762;59.878;17.686;2022-11-11T10:17:39;11.97;;;2.23;;
23187;SDS011;11762;59.878;17.686;2022-11-11T10:20:17;14.23;;;2.27;;
23187;SDS011;11762;59.878;17.686;2022-11-11T10:22:49;18.60;;;3.13;;
23187;SDS011;11762;59.878;17.686;2022-11-11T10:25:20;13.90;;;2.43;;
23187;SDS011;11762;59.878;17.686;2022-11-11T10:27:51;9.83;;;2.23;;
23187;SDS011;11762;59.878;17.686;2022-11-11T10:30:22;12.80;;;2.80;;
23187;SDS011;11762;59.878;17.686;2022-11-11T10:32:52;18.07;;;2.60;;
23187;SDS011;11762;59.878;17.686;2022-11-11T10:35:22;15.30;;;2.30;;
23187;SDS011;11762;59.878;17.686;2022-11-11T10:37:50;9.50;;;2.50;;
23187;SDS011;11762;59.878;17.686;2022-11-11T10:40:34;9.53;;;2.07;;
23187;SDS011;11762;59.878;17.686;2022-11-11T10:43:09;11.43;;;2.00;;
23187;SDS011;11762;59.878;17.686;2022-11-11T10:45:49;11.50;;;2.77;;
23187;SDS011;11762;59.878;17.686;2022-11-11T10:48:28;13.93;;;2.33;;
23187;SDS011;11762;59.878;17.686;2022-11-11T10:51:02;14.37;;;2.50;;
23187;SDS011;11762;59.878;17.686;2022-11-11T10:53:32;12.37;;;2.80;;
23187;SDS011;11762;59.878;17.686;2022-11-11T10:56:08;11.30;;;2.63;;
23187;SDS011;11762;59.878;17.686;2022-11-11T10:58:46;17.77;;;2.83;;
23187;SDS011;11762;59.878;17.686;2022-11-11T11:01:19;13.57;;;2.90;;
23187;SDS011;11762;59.878;17.686;2022-11-11T11:03:54;13.53;;;3.67;;
23187;SDS011;11762;59.878;17.686;2022-11-11T11:06:26;13.37;;;3.17;;
23187;SDS011;11762;59.878;17.686;2022-11-11T11:08:56;17.10;;;3.13;;
23187;SDS011;11762;59.878;17.686;2022-11-11T11:11:28;14.73;;;3.07;;
23187;SDS011;11762;59.878;17.686;2022-11-11T11:14:00;12.30;;;2.33;;
23187;SDS011;11762;59.878;17.686;2022-11-11T11:16:32;14.67;;;3.10;;
23187;SDS011;11762;59.878;17.686;2022-11-11T11:19:13;14.10;;;2.33;;
23187;SDS011;11762;59.878;17.686;2022-11-11T11:21:52;8.77;;;2.33;;
23187;SDS011;11762;59.878;17.686;2022-11-11T11:24:21;13.23;;;2.60;;
23187;SDS011;11762;59.878;17.686;2022-11-11T11:26:50;14.33;;;2.93;;
23187;SDS011;11762;59.878;17.686;2022-11-11T11:29:27;14.93;;;2.43;;
23187;SDS011;11762;59.878;17.686;2022-11-11T11:32:09;11.87;;;2.97;;
23187;SDS011;11762;59.878;17.686;2022-11-11T11:34:42;12.67;;;3.70;;
23187;SDS011;11762;59.878;17.686;2022-11-11T11:37:10;11.33;;;2.20;;
23187;SDS011;11762;59.878;17.686;2022-11-11T11:39:38;16.60;;;2.47;;
23187;SDS011;11762;59.878;17.686;2022-11-11T11:42:05;13.33;;;3.20;;
23187;SDS011;11762;59.878;17.686;2022-11-11T11:44:34;11.57;;;2.53;;
23187;SDS011;11762;59.878;17.686;2022-11-11T11:47:09;8.23;;;2.20;;
23187;SDS011;11762;59.878;17.686;2022-11-11T11:52:45;9.47;;;2.40;;
23187;SDS011;11762;59.878;17.686;2022-11-11T11:55:21;12.33;;;2.70;;
23187;SDS011;11762;59.878;17.686;2022-11-11T11:57:52;15.43;;;2.63;;
23187;SDS011;11762;59.878;17.686;2022-11-11T12:00:35;12.67;;;2.70;;
23187;SDS011;11762;59.878;17.686;2022-11-11T12:03:15;14.30;;;2.87;;
23187;SDS011;11762;59.878;17.686;2022-11-11T12:05:54;11.77;;;2.97;;
23187;SDS011;11762;59.878;17.686;2022-11-11T12:08:38;13.23;;;2.83;;
23187;SDS011;11762;59.878;17.686;2022-11-11T12:11:17;13.13;;;2.60;;
23187;SDS011;11762;59.878;17.686;2022-11-11T12:13:54;14.87;;;2.70;;
23187;SDS011;11762;59.878;17.686;2022-11-11T12:16:36;17.57;;;3.23;;
23187;SDS011;11762;59.878;17.686;2022-11-11T12:19:18;11.97;;;2.43;;
23187;SDS011;11762;59.878;17.686;2022-11-11T12:22:06;15.47;;;3.27;;
23187;SDS011;11762;59.878;17.686;2022-11-11T12:24:45;7.77;;;2.03;;
23187;SDS011;11762;59.878;17.686;2022-11-11T12:27:20;8.67;;;2.10;;
23187;SDS011;11762;59.878;17.686;2022-11-11T12:29:59;12.10;;;2.27;;
23187;SDS011;11762;59.878;17.686;2022-11-11T12:32:33;7.33;;;2.07;;
23187;SDS011;11762;59.878;17.686;2022-11-11T12:35:22;6.80;;;2.20;;
23187;SDS011;11762;59.878;17.686;2022-11-11T12:38:01;9.60;;;2.40;;
23187;SDS011;11762;59.878;17.686;2022-11-11T12:40:53;11.57;;;2.17;;
23187;SDS011;11762;59.878;17.686;2022-11-11T12:43:28;10.60;;;1.80;;
23187;SDS011;11762;59.878;17.686;2022-11-11T12:46:03;15.20;;;2.53;;
23187;SDS011;11762;59.878;17.686;2022-11-11T12:48:40;7.10;;;1.70;;
23187;SDS011;11762;59.878;17.686;2022-11-11T12:51:18;11.63;;;2.70;;
23187;SDS011;11762;59.878;17.686;2022-11-11T12:53:57;7.90;;;1.80;;
23187;SDS011;11762;59.878;17.686;2022-11-11T12:56:31;5.70;;;1.80;;
23187;SDS011;11762;59.878;17.686;2022-11-11T12:59:08;10.10;;;1.90;;
23187;SDS011;11762;59.878;17.686;2022-11-11T13:01:48;7.67;;;1.70;;
23187;SDS011;11762;59.878;17.686;2022-11-11T13:04:25;6.53;;;1.40;;
23187;SDS011;11762;59.878;17.686;2022-11-11T13:07:13;7.80;;;1.60;;
23187;SDS011;11762;59.878;17.686;2022-11-11T13:10:12;11.37;;;2.53;;
23187;SDS011;11762;59.878;17.686;2022-11-11T13:12:51;9.00;;;1.83;;
23187;SDS011;11762;59.878;17.686;2022-11-11T13:15:26;13.77;;;2.13;;
23187;SDS011;11762;59.878;17.686;2022-11-11T13:17:54;8.47;;;1.77;;
23187;SDS011;11762;59.878;17.686;2022-11-11T13:20:34;7.80;;;1.90;;
23187;SDS011;11762;59.878;17.686;2022-11-11T13:23:08;9.23;;;1.80;;
23187;SDS011;11762;59.878;17.686;2022-11-11T13:25:37;9.97;;;2.20;;
23187;SDS011;11762;59.878;17.686;2022-11-11T13:28:13;7.60;;;1.97;;
23187;SDS011;11762;59.878;17.686;2022-11-11T13:30:45;14.40;;;2.93;;
23187;SDS011;11762;59.878;17.686;2022-11-11T13:33:34;9.83;;;1.80;;
23187;SDS011;11762;59.878;17.686;2022-11-11T13:36:06;9.87;;;1.87;;
23187;SDS011;11762;59.878;17.686;2022-11-11T13:38:37;7.80;;;1.80;;
23187;SDS011;11762;59.878;17.686;2022-11-11T13:41:09;5.10;;;1.57;;
23187;SDS011;11762;59.878;17.686;2022-11-11T13:43:39;7.73;;;1.80;;
23187;SDS011;11762;59.878;17.686;2022-11-11T13:46:13;11.90;;;2.00;;
23187;SDS011;11762;59.878;17.686;2022-11-11T13:48:57;5.77;;;1.90;;
23187;SDS011;11762;59.878;17.686;2022-11-11T13:51:29;7.20;;;1.70;;
23187;SDS011;11762;59.878;17.686;2022-11-11T13:54:02;3.73;;;1.40;;
23187;SDS011;11762;59.878;17.686;2022-11-11T13:56:34;6.57;;;1.70;;
23187;SDS011;11762;59.878;17.686;2022-11-11T13:59:05;10.27;;;2.63;;
23187;SDS011;11762;59.878;17.686;2022-11-11T14:01:33;8.70;;;1.63;;
23187;SDS011;11762;59.878;17.686;2022-11-11T14:04:02;9.23;;;1.70;;
23187;SDS011;11762;59.878;17.686;2022-11-11T14:06:36;11.63;;;2.53;;
23187;SDS011;11762;59.878;17.686;2022-11-11T14:12:21;6.53;;;1.80;;
23187;SDS011;11762;59.878;17.686;2022-11-11T14:14:59;7.63;;;1.50;;
23187;SDS011;11762;59.878;17.686;2022-11-11T14:17:27;10.40;;;2.10;;
23187;SDS011;11762;59.878;17.686;2022-11-11T14:19:55;10.67;;;2.20;;
23187;SDS011;11762;59.878;17.686;2022-11-11T14:22:31;8.57;;;1.90;;
23187;SDS011;11762;59.878;17.686;2022-11-11T14:27:46;11.37;;;1.97;;
23187;SDS011;11762;59.878;17.686;2022-11-11T14:33:04;9.10;;;1.90;;
23187;SDS011;11762;59.878;17.686;2022-11-11T14:35:38;7.87;;;2.20;;
23187;SDS011;11762;59.878;17.686;2022-11-11T14:38:14;10.30;;;2.20;;
23187;SDS011;11762;59.878;17.686;2022-11-11T14:40:47;11.50;;;2.30;;
23187;SDS011;11762;59.878;17.686;2022-11-11T14:43:33;8.47;;;2.40;;
23187;SDS011;11762;59.878;17.686;2022-11-11T14:46:06;11.23;;;2.73;;
23187;SDS011;11762;59.878;17.686;2022-11-11T14:48:50;11.40;;;2.93;;
23187;SDS011;11762;59.878;17.686;2022-11-11T14:57:10;8.77;;;2.83;;
23187;SDS011;11762;59.878;17.686;2022-11-11T14:59:46;13.93;;;2.80;;
23187;SDS011;11762;59.878;17.686;2022-11-11T15:02:30;16.40;;;3.30;;
23187;SDS011;11762;59.878;17.686;2022-11-11T15:05:01;15.50;;;3.33;;
23187;SDS011;11762;59.878;17.686;2022-11-11T15:07:38;16.90;;;2.83;;
23187;SDS011;11762;59.878;17.686;2022-11-11T15:10:24;9.40;;;2.57;;
23187;SDS011;11762;59.878;17.686;2022-11-11T15:13:01;16.77;;;2.77;;
23187;SDS011;11762;59.878;17.686;2022-11-11T15:15:45;17.33;;;3.23;;
23187;SDS011;11762;59.878;17.686;2022-11-11T15:18:24;12.80;;;3.47;;
23187;SDS011;11762;59.878;17.686;2022-11-11T15:21:04;13.77;;;2.70;;
23187;SDS011;11762;59.878;17.686;2022-11-11T15:23:35;15.20;;;3.77;;
23187;SDS011;11762;59.878;17.686;2022-11-11T15:26:12;16.70;;;3.00;;
23187;SDS011;11762;59.878;17.686;2022-11-11T15:31:47;17.57;;;3.20;;
23187;SDS011;11762;59.878;17.686;2022-11-11T15:34:25;11.30;;;2.43;;
23187;SDS011;11762;59.878;17.686;2022-11-11T15:37:01;14.60;;;2.77;;
23187;SDS011;11762;59.878;17.686;2022-11-11T15:39:38;22.50;;;3.17;;
23187;SDS011;11762;59.878;17.686;2022-11-11T15:42:11;14.80;;;2.87;;
23187;SDS011;11762;59.878;17.686;2022-11-11T15:44:49;18.23;;;3.60;;
23187;SDS011;11762;59.878;17.686;2022-11-11T15:47:17;17.27;;;3.63;;
23187;SDS011;11762;59.878;17.686;2022-11-11T15:49:47;17.90;;;4.03;;
23187;SDS011;11762;59.878;17.686;2022-11-11T15:52:24;17.47;;;3.87;;
23187;SDS011;11762;59.878;17.686;2022-11-11T15:54:54;20.37;;;4.20;;
23187;SDS011;11762;59.878;17.686;2022-11-11T15:57:24;14.30;;;2.43;;
23187;SDS011;11762;59.878;17.686;2022-11-11T15:59:53;15.20;;;2.67;;
23187;SDS011;11762;59.878;17.686;2022-11-11T16:02:20;19.27;;;3.67;;
23187;SDS011;11762;59.878;17.686;2022-11-11T16:04:51;16.07;;;3.50;;
23187;SDS011;11762;59.878;17.686;2022-11-11T16:07:21;16.20;;;3.33;;
23187;SDS011;11762;59.878;17.686;2022-11-11T16:09:50;15.00;;;3.50;;
23187;SDS011;11762;59.878;17.686;2022-11-11T16:12:21;15.37;;;3.10;;
23187;SDS011;11762;59.878;17.686;2022-11-11T16:14:52;18.70;;;3.73;;
23187;SDS011;11762;59.878;17.686;2022-11-11T16:17:22;14.33;;;2.40;;
23187;SDS011;11762;59.878;17.686;2022-11-11T16:19:54;11.43;;;3.23;;
23187;SDS011;11762;59.878;17.686;2022-11-11T16:22:22;26.00;;;3.83;;
23187;SDS011;11762;59.878;17.686;2022-11-11T16:24:51;12.00;;;3.40;;
23187;SDS011;11762;59.878;17.686;2022-11-11T16:27:20;12.17;;;2.90;;
23187;SDS011;11762;59.878;17.686;2022-11-11T16:29:52;17.47;;;2.97;;
23187;SDS011;11762;59.878;17.686;2022-11-11T16:32:32;19.53;;;2.43;;
23187;SDS011;11762;59.878;17.686;2022-11-11T16:34:59;14.77;;;2.80;;
23187;SDS011;11762;59.878;17.686;2022-11-11T16:37:27;17.23;;;3.60;;
23187;SDS011;11762;59.878;17.686;2022-11-11T16:39:54;14.37;;;3.53;;
23187;SDS011;11762;59.878;17.686;2022-11-11T16:42:22;12.93;;;2.63;;
23187;SDS011;11762;59.878;17.686;2022-11-11T16:44:54;14.03;;;3.10;;
23187;SDS011;11762;59.878;17.686;2022-11-11T16:47:42;13.10;;;2.83;;
23187;SDS011;11762;59.878;17.686;2022-11-11T16:50:15;11.07;;;2.57;;
23187;SDS011;11762;59.878;17.686;2022-11-11T16:52:45;17.63;;;3.40;;
23187;SDS011;11762;59.878;17.686;2022-11-11T16:55:17;10.33;;;2.60;;
23187;SDS011;11762;59.878;17.686;2022-11-11T16:57:49;12.03;;;2.57;;
23187;SDS011;11762;59.878;17.686;2022-11-11T17:00:18;11.63;;;2.80;;
23187;SDS011;11762;59.878;17.686;2022-11-11T17:02:47;15.57;;;2.80;;
23187;SDS011;11762;59.878;17.686;2022-11-11T17:05:48;14.40;;;2.80;;
23187;SDS011;11762;59.878;17.686;2022-11-11T17:08:29;12.13;;;2.97;;
23187;SDS011;11762;59.878;17.686;2022-11-11T17:10:59;17.43;;;2.80;;
23187;SDS011;11762;59.878;17.686;2022-11-11T17:13:26;13.97;;;2.90;;
23187;SDS011;11762;59.878;17.686;2022-11-11T17:15:57;8.93;;;2.33;;
23187;SDS011;11762;59.878;17.686;2022-11-11T17:18:28;12.20;;;2.93;;
23187;SDS011;11762;59.878;17.686;2022-11-11T17:20:58;17.47;;;2.87;;
23187;SDS011;11762;59.878;17.686;2022-11-11T17:23:25;13.10;;;2.63;;
23187;SDS011;11762;59.878;17.686;2022-11-11T17:25:53;14.63;;;3.07;;
23187;SDS011;11762;59.878;17.686;2022-11-11T17:28:21;18.67;;;2.67;;
23187;SDS011;11762;59.878;17.686;2022-11-11T17:30:48;12.20;;;2.67;;
23187;SDS011;11762;59.878;17.686;2022-11-11T17:33:17;11.03;;;2.20;;
23187;SDS011;11762;59.878;17.686;2022-11-11T17:35:50;12.23;;;2.37;;
23187;SDS011;11762;59.878;17.686;2022-11-11T17:38:17;9.63;;;2.50;;
23187;SDS011;11762;59.878;17.686;2022-11-11T17:40:45;14.73;;;2.67;;
23187;SDS011;11762;59.878;17.686;2022-11-11T17:43:12;10.93;;;2.90;;
23187;SDS011;11762;59.878;17.686;2022-11-11T17:45:40;14.00;;;2.80;;
23187;SDS011;11762;59.878;17.686;2022-11-11T17:48:08;12.50;;;2.33;;